CDT,Max TemperatureF,Mean TemperatureF,Min TemperatureF,Max Dew PointF,MeanDew PointF,Min DewpointF,Max Humidity, Mean Humidity, Min Humidity, Max Sea Level PressureIn, Mean Sea Level PressureIn, Min Sea Level PressureIn, Max VisibilityMiles, Mean VisibilityMiles, Min VisibilityMiles, Max Wind SpeedMPH, Mean Wind SpeedMPH, Max Gust SpeedMPH,PrecipitationIn, CloudCover, Events, WindDirDegrees
2013-7-1,89,79,69,69,64,61,84,62,40,29.96,29.92,29.87,10,10,10,13,4,18,0.00,1,,8
2013-7-2,92,80,68,67,64,59,90,63,36,30.03,29.99,29.95,10,10,10,13,5,16,0.00,1,,43
2013-7-3,92,81,69,66,63,57,84,58,32,30.05,30.01,29.95,10,10,10,15,6,28,0.00,0,,55
2013-7-4,94,82,69,68,65,60,90,63,36,30.01,29.98,29.93,10,9,6,17,5,23,0.00,0,,52
2013-7-5,96,84,72,73,70,65,93,65,36,30.00,29.97,29.93,10,9,6,25,7,30,0.00,1,,83
2013-7-6,93,83,72,75,72,69,93,71,49,29.99,29.96,29.92,10,10,10,18,9,23,0.00,1,,94
2013-7-7,90,83,76,76,75,73,94,77,59,30.07,30.02,29.95,10,10,7,18,8,24,0.04,4,Rain-Thunderstorm,139
2013-7-8,92,84,76,77,74,72,94,75,56,30.16,30.12,30.06,10,10,10,9,6,14,0.00,1,,154
2013-7-9,95,85,75,77,74,68,100,71,42,30.19,30.14,30.10,10,10,9,16,4,25,0.00,1,Thunderstorm,158
2013-7-10,94,84,74,76,73,70,94,73,52,30.13,30.07,30.00,10,10,7,13,4,18,0.00,0,,215
2013-7-11,95,86,76,76,73,70,94,70,46,30.04,29.98,29.91,10,9,1,36,4,51,0.43,3,Rain-Thunderstorm,236
2013-7-12,94,85,76,77,75,72,94,73,52,30.00,29.94,29.88,10,10,6,13,4,17,0.01,2,Rain-Thunderstorm,260
2013-7-13,96,85,73,76,65,54,93,60,26,29.99,29.94,29.89,10,10,9,13,4,16,0.00,1,,33
2013-7-14,91,82,72,72,69,65,87,66,44,29.99,29.95,29.92,10,10,7,12,3,22,0.00,1,,102
2013-7-15,90,83,76,76,73,69,91,73,55,30.12,30.03,29.95,10,10,9,26,8,33,0.07,1,Thunderstorm,104
2013-7-16,89,82,74,76,73,71,94,80,65,30.16,30.11,30.05,10,10,6,31,9,39,0.15,2,Rain-Thunderstorm,90
2013-7-17,93,84,74,75,73,68,94,73,52,30.22,30.16,30.11,10,10,7,28,7,36,T,3,Rain-Thunderstorm,87
2013-7-18,94,83,72,73,71,68,93,69,44,30.17,30.10,30.01,10,10,10,22,6,28,0.00,1,Thunderstorm,62
2013-7-19,91,82,73,72,71,68,93,72,50,30.09,30.03,29.98,10,10,2,18,4,25,0.11,3,Rain-Thunderstorm,336
2013-7-20,91,82,72,75,72,68,94,72,50,30.02,29.98,29.92,10,10,7,23,4,30,0.00,1,Thunderstorm,149
2013-7-21,87,81,74,75,73,71,94,80,65,30.05,30.01,29.95,10,9,1,18,7,26,0.38,4,Rain-Thunderstorm,194
2013-7-22,92,84,76,79,77,74,94,77,60,30.08,30.03,30.01,10,10,10,16,7,24,0.00,2,,214
2013-7-23,93,86,79,77,75,73,91,74,56,30.08,30.02,29.96,10,10,7,16,8,24,0.00,1,,228
2013-7-24,93,85,77,77,75,71,91,72,52,30.03,29.98,29.91,10,10,9,14,7,22,0.00,2,,239
2013-7-25,96,88,79,77,76,73,97,73,49,30.07,30.02,29.95,10,9,7,12,4,15,T,4,Rain,267
2013-7-26,94,85,76,76,74,70,94,70,46,30.09,30.03,29.97,10,10,10,14,6,22,0.00,1,,228
2013-7-27,93,86,78,77,75,71,91,74,56,29.96,29.93,29.88,10,9,1,16,7,26,0.51,5,Rain,252
2013-7-28,88,82,75,77,75,73,94,81,68,30.03,29.98,29.93,10,10,8,17,4,22,T,6,Rain,99
2013-7-29,93,84,74,77,74,71,94,73,52,30.13,30.08,30.02,10,9,5,12,4,16,0.00,1,,206
2013-7-30,94,84,73,78,72,68,94,69,44,30.17,30.12,30.08,10,10,9,13,3,17,0.00,0,,203
2013-7-31,95,85,74,76,73,69,94,70,46,30.13,30.07,29.99,10,10,9,13,4,20,0.00,1,,226